Grand Etang, Canada
Current Conditions -  °F | °C
As of 3:00 PM on Thursday 30 Oct 2014 (Local Time) from CYQY Reporting Station
Rain Showers Rain Showers  
Wind Chill: 52°   Ceiling: 6200
Heat Index: 52°   Visibility: 10mi
Dew Point: 48°   Wind: 6mph
Humidity: 88%   Direction: 260°W
Pressure: 29.72"   Gusts: NA
Location:  46.55°N, 61.04°W
Report Text: CYQY 301800Z 26005KT 10SM -SHRA SCT031 OVC062 11/09 A2972 RMK SC3SC5 SLP063
Loading
Personal Weather Stations






























Interactive Weather Map
Tropical Storm Tracking
New forecast layout! Learn more

10-Day Weather Forecast

Advertisements
Track Severe Weather on mobile